sensor_id;sensor_type;location;lat;lon;timestamp;P1;durP1;ratioP1;P2;durP2;ratioP2
44764;SDS011;30484;52.382;5.260;2023-06-26T00:01:40;8.52;;;6.15;;
44764;SDS011;30484;52.382;5.260;2023-06-26T00:04:09;10.07;;;6.47;;
44764;SDS011;30484;52.382;5.260;2023-06-26T00:06:41;8.98;;;6.15;;
44764;SDS011;30484;52.382;5.260;2023-06-26T00:09:10;8.00;;;5.95;;
44764;SDS011;30484;52.382;5.260;2023-06-26T00:11:38;9.98;;;6.65;;
44764;SDS011;30484;52.382;5.260;2023-06-26T00:14:07;10.73;;;6.07;;
44764;SDS011;30484;52.382;5.260;2023-06-26T00:16:36;8.68;;;6.07;;
44764;SDS011;30484;52.382;5.260;2023-06-26T00:19:06;8.05;;;5.47;;
44764;SDS011;30484;52.382;5.260;2023-06-26T00:21:35;7.55;;;5.85;;
44764;SDS011;30484;52.382;5.260;2023-06-26T00:24:04;8.07;;;5.85;;
44764;SDS011;30484;52.382;5.260;2023-06-26T00:26:33;8.05;;;5.65;;
44764;SDS011;30484;52.382;5.260;2023-06-26T00:29:05;9.38;;;6.28;;
44764;SDS011;30484;52.382;5.260;2023-06-26T00:31:42;8.02;;;5.80;;
44764;SDS011;30484;52.382;5.260;2023-06-26T00:34:13;9.70;;;6.32;;
44764;SDS011;30484;52.382;5.260;2023-06-26T00:36:43;8.18;;;5.72;;
44764;SDS011;30484;52.382;5.260;2023-06-26T00:39:12;9.13;;;6.18;;
44764;SDS011;30484;52.382;5.260;2023-06-26T00:41:42;8.32;;;5.90;;
44764;SDS011;30484;52.382;5.260;2023-06-26T00:44:13;9.98;;;5.75;;
44764;SDS011;30484;52.382;5.260;2023-06-26T00:46:42;9.23;;;6.38;;
44764;SDS011;30484;52.382;5.260;2023-06-26T00:49:20;11.48;;;6.20;;
44764;SDS011;30484;52.382;5.260;2023-06-26T00:51:50;9.10;;;6.15;;
44764;SDS011;30484;52.382;5.260;2023-06-26T00:54:30;12.82;;;6.47;;
44764;SDS011;30484;52.382;5.260;2023-06-26T00:57:01;11.48;;;6.38;;
44764;SDS011;30484;52.382;5.260;2023-06-26T00:59:32;11.35;;;6.68;;
44764;SDS011;30484;52.382;5.260;2023-06-26T01:02:16;8.85;;;6.30;;
44764;SDS011;30484;52.382;5.260;2023-06-26T01:04:55;13.13;;;9.60;;
44764;SDS011;30484;52.382;5.260;2023-06-26T01:07:25;12.38;;;8.20;;
44764;SDS011;30484;52.382;5.260;2023-06-26T01:10:10;8.73;;;6.60;;
44764;SDS011;30484;52.382;5.260;2023-06-26T01:12:40;10.90;;;6.85;;
44764;SDS011;30484;52.382;5.260;2023-06-26T01:15:10;10.40;;;6.22;;
44764;SDS011;30484;52.382;5.260;2023-06-26T01:17:40;8.00;;;5.63;;
44764;SDS011;30484;52.382;5.260;2023-06-26T01:20:13;6.70;;;5.07;;
44764;SDS011;30484;52.382;5.260;2023-06-26T01:22:45;11.10;;;6.20;;
44764;SDS011;30484;52.382;5.260;2023-06-26T01:25:29;11.95;;;5.43;;
44764;SDS011;30484;52.382;5.260;2023-06-26T01:28:12;7.60;;;5.38;;
44764;SDS011;30484;52.382;5.260;2023-06-26T01:30:44;10.80;;;5.40;;
44764;SDS011;30484;52.382;5.260;2023-06-26T01:33:13;7.32;;;4.93;;
44764;SDS011;30484;52.382;5.260;2023-06-26T01:35:42;13.57;;;6.65;;
44764;SDS011;30484;52.382;5.260;2023-06-26T01:38:12;9.23;;;5.10;;
44764;SDS011;30484;52.382;5.260;2023-06-26T01:40:43;8.05;;;4.78;;
44764;SDS011;30484;52.382;5.260;2023-06-26T01:43:18;12.48;;;5.68;;
44764;SDS011;30484;52.382;5.260;2023-06-26T01:45:53;7.65;;;5.00;;
44764;SDS011;30484;52.382;5.260;2023-06-26T01:48:28;9.88;;;5.13;;
44764;SDS011;30484;52.382;5.260;2023-06-26T01:51:02;13.82;;;5.47;;
44764;SDS011;30484;52.382;5.260;2023-06-26T01:53:32;11.75;;;5.80;;
44764;SDS011;30484;52.382;5.260;2023-06-26T01:56:07;11.68;;;5.85;;
44764;SDS011;30484;52.382;5.260;2023-06-26T01:58:43;9.48;;;5.40;;
44764;SDS011;30484;52.382;5.260;2023-06-26T02:01:14;12.70;;;5.65;;
44764;SDS011;30484;52.382;5.260;2023-06-26T02:03:43;10.95;;;5.20;;
44764;SDS011;30484;52.382;5.260;2023-06-26T02:06:13;19.30;;;5.95;;
44764;SDS011;30484;52.382;5.260;2023-06-26T02:08:41;13.98;;;5.80;;
44764;SDS011;30484;52.382;5.260;2023-06-26T02:11:12;12.18;;;5.68;;
44764;SDS011;30484;52.382;5.260;2023-06-26T02:13:42;12.48;;;5.63;;
44764;SDS011;30484;52.382;5.260;2023-06-26T02:16:12;11.13;;;5.72;;
44764;SDS011;30484;52.382;5.260;2023-06-26T02:18:41;12.52;;;5.47;;
44764;SDS011;30484;52.382;5.260;2023-06-26T02:21:10;14.18;;;6.28;;
44764;SDS011;30484;52.382;5.260;2023-06-26T02:23:38;14.23;;;5.57;;
44764;SDS011;30484;52.382;5.260;2023-06-26T02:26:08;15.25;;;5.18;;
44764;SDS011;30484;52.382;5.260;2023-06-26T02:28:37;13.98;;;6.20;;
44764;SDS011;30484;52.382;5.260;2023-06-26T02:31:07;12.10;;;6.07;;
44764;SDS011;30484;52.382;5.260;2023-06-26T02:33:36;14.40;;;6.03;;
44764;SDS011;30484;52.382;5.260;2023-06-26T02:36:05;15.30;;;5.90;;
44764;SDS011;30484;52.382;5.260;2023-06-26T02:38:34;17.60;;;6.72;;
44764;SDS011;30484;52.382;5.260;2023-06-26T02:41:03;18.25;;;6.38;;
44764;SDS011;30484;52.382;5.260;2023-06-26T02:43:31;18.92;;;6.03;;
44764;SDS011;30484;52.382;5.260;2023-06-26T02:46:00;15.32;;;6.10;;
44764;SDS011;30484;52.382;5.260;2023-06-26T02:48:30;18.65;;;6.68;;
44764;SDS011;30484;52.382;5.260;2023-06-26T02:50:58;19.23;;;8.10;;
44764;SDS011;30484;52.382;5.260;2023-06-26T02:53:27;15.73;;;6.20;;
44764;SDS011;30484;52.382;5.260;2023-06-26T02:55:55;20.45;;;6.07;;
44764;SDS011;30484;52.382;5.260;2023-06-26T02:58:24;19.27;;;6.00;;
44764;SDS011;30484;52.382;5.260;2023-06-26T03:00:52;14.20;;;5.68;;
44764;SDS011;30484;52.382;5.260;2023-06-26T03:03:22;16.38;;;6.50;;
44764;SDS011;30484;52.382;5.260;2023-06-26T03:05:52;17.90;;;6.13;;
44764;SDS011;30484;52.382;5.260;2023-06-26T03:08:21;20.88;;;6.30;;
44764;SDS011;30484;52.382;5.260;2023-06-26T03:10:50;16.33;;;5.93;;
44764;SDS011;30484;52.382;5.260;2023-06-26T03:13:18;19.20;;;6.13;;
44764;SDS011;30484;52.382;5.260;2023-06-26T03:15:47;20.30;;;6.68;;
44764;SDS011;30484;52.382;5.260;2023-06-26T03:18:15;20.30;;;6.38;;
44764;SDS011;30484;52.382;5.260;2023-06-26T03:20:43;19.08;;;6.25;;
44764;SDS011;30484;52.382;5.260;2023-06-26T03:23:13;19.40;;;6.13;;
44764;SDS011;30484;52.382;5.260;2023-06-26T03:25:42;19.73;;;6.43;;
44764;SDS011;30484;52.382;5.260;2023-06-26T03:28:10;21.00;;;6.20;;
44764;SDS011;30484;52.382;5.260;2023-06-26T03:30:39;21.08;;;6.20;;
44764;SDS011;30484;52.382;5.260;2023-06-26T03:33:08;25.25;;;6.60;;
44764;SDS011;30484;52.382;5.260;2023-06-26T03:35:37;20.25;;;6.15;;
44764;SDS011;30484;52.382;5.260;2023-06-26T03:38:05;24.05;;;6.53;;
44764;SDS011;30484;52.382;5.260;2023-06-26T03:40:35;23.30;;;6.15;;
44764;SDS011;30484;52.382;5.260;2023-06-26T03:43:04;18.50;;;6.22;;
44764;SDS011;30484;52.382;5.260;2023-06-26T03:45:33;21.35;;;5.85;;
44764;SDS011;30484;52.382;5.260;2023-06-26T03:48:01;17.48;;;6.38;;
44764;SDS011;30484;52.382;5.260;2023-06-26T03:50:30;23.52;;;6.53;;
44764;SDS011;30484;52.382;5.260;2023-06-26T03:52:59;17.85;;;5.50;;
44764;SDS011;30484;52.382;5.260;2023-06-26T03:55:27;15.52;;;5.90;;
44764;SDS011;30484;52.382;5.260;2023-06-26T03:57:57;19.08;;;5.75;;
44764;SDS011;30484;52.382;5.260;2023-06-26T04:00:26;19.75;;;5.25;;
44764;SDS011;30484;52.382;5.260;2023-06-26T04:02:55;18.02;;;5.65;;
44764;SDS011;30484;52.382;5.260;2023-06-26T04:05:24;15.55;;;6.03;;
44764;SDS011;30484;52.382;5.260;2023-06-26T04:07:53;19.10;;;5.63;;
44764;SDS011;30484;52.382;5.260;2023-06-26T04:10:22;14.38;;;4.93;;
44764;SDS011;30484;52.382;5.260;2023-06-26T04:12:51;13.30;;;5.22;;
44764;SDS011;30484;52.382;5.260;2023-06-26T04:15:22;15.73;;;4.97;;
44764;SDS011;30484;52.382;5.260;2023-06-26T04:17:51;15.00;;;5.30;;
44764;SDS011;30484;52.382;5.260;2023-06-26T04:20:20;11.85;;;4.97;;
44764;SDS011;30484;52.382;5.260;2023-06-26T04:22:50;12.60;;;4.47;;
44764;SDS011;30484;52.382;5.260;2023-06-26T04:25:20;8.80;;;4.05;;
44764;SDS011;30484;52.382;5.260;2023-06-26T04:27:49;10.68;;;4.35;;
44764;SDS011;30484;52.382;5.260;2023-06-26T04:30:18;13.25;;;4.40;;
44764;SDS011;30484;52.382;5.260;2023-06-26T04:32:49;10.68;;;3.95;;
44764;SDS011;30484;52.382;5.260;2023-06-26T04:35:19;11.00;;;4.03;;
44764;SDS011;30484;52.382;5.260;2023-06-26T04:37:48;14.50;;;4.25;;
44764;SDS011;30484;52.382;5.260;2023-06-26T04:40:18;8.02;;;3.90;;
44764;SDS011;30484;52.382;5.260;2023-06-26T04:42:47;14.80;;;4.00;;
44764;SDS011;30484;52.382;5.260;2023-06-26T04:45:27;10.65;;;4.30;;
44764;SDS011;30484;52.382;5.260;2023-06-26T04:48:02;9.80;;;4.05;;
44764;SDS011;30484;52.382;5.260;2023-06-26T04:50:33;9.98;;;3.90;;
44764;SDS011;30484;52.382;5.260;2023-06-26T04:53:03;10.35;;;3.85;;
44764;SDS011;30484;52.382;5.260;2023-06-26T04:55:32;9.38;;;3.47;;
44764;SDS011;30484;52.382;5.260;2023-06-26T04:58:03;7.43;;;3.50;;
44764;SDS011;30484;52.382;5.260;2023-06-26T05:00:32;12.45;;;4.28;;
44764;SDS011;30484;52.382;5.260;2023-06-26T05:03:14;11.23;;;3.60;;
44764;SDS011;30484;52.382;5.260;2023-06-26T05:05:47;8.82;;;3.88;;
44764;SDS011;30484;52.382;5.260;2023-06-26T05:08:21;8.43;;;3.22;;
44764;SDS011;30484;52.382;5.260;2023-06-26T05:10:52;8.15;;;3.15;;
44764;SDS011;30484;52.382;5.260;2023-06-26T05:13:26;8.15;;;3.25;;
44764;SDS011;30484;52.382;5.260;2023-06-26T05:15:57;5.90;;;3.38;;
44764;SDS011;30484;52.382;5.260;2023-06-26T05:18:28;7.88;;;3.05;;
44764;SDS011;30484;52.382;5.260;2023-06-26T05:20:56;6.78;;;2.92;;
44764;SDS011;30484;52.382;5.260;2023-06-26T05:23:27;8.15;;;3.30;;
44764;SDS011;30484;52.382;5.260;2023-06-26T05:26:02;9.07;;;3.20;;
44764;SDS011;30484;52.382;5.260;2023-06-26T05:28:33;7.85;;;3.30;;
44764;SDS011;30484;52.382;5.260;2023-06-26T05:31:03;6.82;;;2.92;;
44764;SDS011;30484;52.382;5.260;2023-06-26T05:33:36;12.60;;;3.30;;
44764;SDS011;30484;52.382;5.260;2023-06-26T05:36:13;9.35;;;2.80;;
44764;SDS011;30484;52.382;5.260;2023-06-26T05:38:44;6.80;;;3.20;;
44764;SDS011;30484;52.382;5.260;2023-06-26T05:41:13;6.97;;;3.08;;
44764;SDS011;30484;52.382;5.260;2023-06-26T05:43:44;7.32;;;3.00;;
44764;SDS011;30484;52.382;5.260;2023-06-26T05:46:16;6.97;;;3.05;;
44764;SDS011;30484;52.382;5.260;2023-06-26T05:48:46;10.40;;;3.53;;
44764;SDS011;30484;52.382;5.260;2023-06-26T05:51:17;9.15;;;3.28;;
44764;SDS011;30484;52.382;5.260;2023-06-26T05:53:46;8.25;;;2.92;;
44764;SDS011;30484;52.382;5.260;2023-06-26T05:56:16;6.70;;;2.83;;
44764;SDS011;30484;52.382;5.260;2023-06-26T05:58:46;6.50;;;3.05;;
44764;SDS011;30484;52.382;5.260;2023-06-26T06:01:16;9.05;;;2.92;;
44764;SDS011;30484;52.382;5.260;2023-06-26T06:03:47;11.68;;;3.72;;
44764;SDS011;30484;52.382;5.260;2023-06-26T06:06:16;9.02;;;3.08;;
44764;SDS011;30484;52.382;5.260;2023-06-26T06:08:45;7.55;;;2.97;;
44764;SDS011;30484;52.382;5.260;2023-06-26T06:11:15;7.07;;;2.95;;
44764;SDS011;30484;52.382;5.260;2023-06-26T06:13:43;8.15;;;2.90;;
44764;SDS011;30484;52.382;5.260;2023-06-26T06:16:12;7.30;;;2.67;;
44764;SDS011;30484;52.382;5.260;2023-06-26T06:18:40;7.20;;;2.40;;
44764;SDS011;30484;52.382;5.260;2023-06-26T06:21:11;9.73;;;2.67;;
44764;SDS011;30484;52.382;5.260;2023-06-26T06:23:40;6.00;;;2.70;;
44764;SDS011;30484;52.382;5.260;2023-06-26T06:26:08;8.10;;;2.65;;
44764;SDS011;30484;52.382;5.260;2023-06-26T06:28:37;12.38;;;3.25;;
44764;SDS011;30484;52.382;5.260;2023-06-26T06:31:06;8.52;;;3.00;;
44764;SDS011;30484;52.382;5.260;2023-06-26T06:33:38;7.57;;;2.63;;
44764;SDS011;30484;52.382;5.260;2023-06-26T06:36:07;5.45;;;2.20;;
44764;SDS011;30484;52.382;5.260;2023-06-26T06:38:38;6.53;;;2.67;;
44764;SDS011;30484;52.382;5.260;2023-06-26T06:41:11;8.02;;;2.90;;
44764;SDS011;30484;52.382;5.260;2023-06-26T06:43:40;6.25;;;2.67;;
44764;SDS011;30484;52.382;5.260;2023-06-26T06:46:09;8.73;;;3.30;;
44764;SDS011;30484;52.382;5.260;2023-06-26T06:48:38;9.57;;;3.17;;
44764;SDS011;30484;52.382;5.260;2023-06-26T06:51:06;8.40;;;2.90;;
44764;SDS011;30484;52.382;5.260;2023-06-26T06:53:37;7.68;;;2.55;;
44764;SDS011;30484;52.382;5.260;2023-06-26T06:56:05;9.15;;;3.72;;
44764;SDS011;30484;52.382;5.260;2023-06-26T06:58:33;10.00;;;3.30;;
44764;SDS011;30484;52.382;5.260;2023-06-26T07:01:02;7.85;;;2.78;;
44764;SDS011;30484;52.382;5.260;2023-06-26T07:03:30;7.93;;;2.92;;
44764;SDS011;30484;52.382;5.260;2023-06-26T07:06:04;7.07;;;2.70;;
44764;SDS011;30484;52.382;5.260;2023-06-26T07:08:34;7.47;;;2.65;;
44764;SDS011;30484;52.382;5.260;2023-06-26T07:11:04;6.82;;;2.67;;
44764;SDS011;30484;52.382;5.260;2023-06-26T07:13:32;17.85;;;3.58;;
44764;SDS011;30484;52.382;5.260;2023-06-26T07:16:00;7.70;;;3.10;;
44764;SDS011;30484;52.382;5.260;2023-06-26T07:18:29;13.40;;;2.80;;
44764;SDS011;30484;52.382;5.260;2023-06-26T07:20:58;8.13;;;3.03;;
44764;SDS011;30484;52.382;5.260;2023-06-26T07:23:26;9.65;;;3.10;;
44764;SDS011;30484;52.382;5.260;2023-06-26T07:25:56;10.85;;;3.58;;
44764;SDS011;30484;52.382;5.260;2023-06-26T07:28:24;9.50;;;3.33;;
44764;SDS011;30484;52.382;5.260;2023-06-26T07:30:53;11.40;;;3.15;;
44764;SDS011;30484;52.382;5.260;2023-06-26T07:33:21;13.43;;;3.30;;
44764;SDS011;30484;52.382;5.260;2023-06-26T07:35:49;7.43;;;3.10;;
44764;SDS011;30484;52.382;5.260;2023-06-26T07:38:18;14.07;;;3.55;;
44764;SDS011;30484;52.382;5.260;2023-06-26T07:40:46;8.68;;;3.08;;
44764;SDS011;30484;52.382;5.260;2023-06-26T07:43:16;10.35;;;3.78;;
44764;SDS011;30484;52.382;5.260;2023-06-26T07:45:45;8.20;;;3.10;;
44764;SDS011;30484;52.382;5.260;2023-06-26T07:48:13;18.73;;;5.05;;
44764;SDS011;30484;52.382;5.260;2023-06-26T07:50:41;11.38;;;4.28;;
44764;SDS011;30484;52.382;5.260;2023-06-26T07:53:10;17.02;;;4.40;;
44764;SDS011;30484;52.382;5.260;2023-06-26T07:55:38;9.88;;;3.78;;
44764;SDS011;30484;52.382;5.260;2023-06-26T07:58:06;14.48;;;3.53;;
44764;SDS011;30484;52.382;5.260;2023-06-26T08:00:37;9.95;;;3.10;;
44764;SDS011;30484;52.382;5.260;2023-06-26T08:03:06;9.70;;;3.40;;
44764;SDS011;30484;52.382;5.260;2023-06-26T08:05:47;11.95;;;3.50;;
44764;SDS011;30484;52.382;5.260;2023-06-26T08:08:16;11.65;;;3.35;;
44764;SDS011;30484;52.382;5.260;2023-06-26T08:10:44;10.18;;;3.13;;
44764;SDS011;30484;52.382;5.260;2023-06-26T08:13:12;17.20;;;3.35;;
44764;SDS011;30484;52.382;5.260;2023-06-26T08:15:42;13.73;;;3.30;;
44764;SDS011;30484;52.382;5.260;2023-06-26T08:18:11;10.48;;;2.75;;
44764;SDS011;30484;52.382;5.260;2023-06-26T08:20:39;14.52;;;3.10;;
44764;SDS011;30484;52.382;5.260;2023-06-26T08:23:08;10.02;;;3.60;;
44764;SDS011;30484;52.382;5.260;2023-06-26T08:25:36;10.52;;;3.03;;
44764;SDS011;30484;52.382;5.260;2023-06-26T08:28:04;8.48;;;2.70;;
44764;SDS011;30484;52.382;5.260;2023-06-26T08:30:33;7.95;;;2.80;;
44764;SDS011;30484;52.382;5.260;2023-06-26T08:33:03;20.48;;;3.30;;
44764;SDS011;30484;52.382;5.260;2023-06-26T08:35:31;12.35;;;3.10;;
44764;SDS011;30484;52.382;5.260;2023-06-26T08:37:59;11.35;;;2.97;;
44764;SDS011;30484;52.382;5.260;2023-06-26T08:40:33;16.88;;;3.80;;
44764;SDS011;30484;52.382;5.260;2023-06-26T08:43:05;9.27;;;2.92;;
44764;SDS011;30484;52.382;5.260;2023-06-26T08:45:34;14.70;;;3.08;;
44764;SDS011;30484;52.382;5.260;2023-06-26T08:48:06;7.40;;;2.40;;
44764;SDS011;30484;52.382;5.260;2023-06-26T08:50:36;11.32;;;2.92;;
44764;SDS011;30484;52.382;5.260;2023-06-26T08:53:13;12.50;;;3.22;;
44764;SDS011;30484;52.382;5.260;2023-06-26T08:55:49;13.55;;;2.80;;
44764;SDS011;30484;52.382;5.260;2023-06-26T08:58:20;12.43;;;2.60;;
44764;SDS011;30484;52.382;5.260;2023-06-26T09:00:49;10.35;;;2.83;;
44764;SDS011;30484;52.382;5.260;2023-06-26T09:03:19;9.75;;;2.67;;
44764;SDS011;30484;52.382;5.260;2023-06-26T09:05:48;9.43;;;2.60;;
44764;SDS011;30484;52.382;5.260;2023-06-26T09:08:17;13.45;;;2.83;;
44764;SDS011;30484;52.382;5.260;2023-06-26T09:10:45;7.45;;;2.10;;
44764;SDS011;30484;52.382;5.260;2023-06-26T09:13:14;8.35;;;2.63;;
44764;SDS011;30484;52.382;5.260;2023-06-26T09:15:55;8.43;;;2.63;;
44764;SDS011;30484;52.382;5.260;2023-06-26T09:18:28;11.70;;;3.00;;
44764;SDS011;30484;52.382;5.260;2023-06-26T09:20:57;14.43;;;3.33;;
44764;SDS011;30484;52.382;5.260;2023-06-26T09:23:25;10.23;;;3.15;;
44764;SDS011;30484;52.382;5.260;2023-06-26T09:25:54;9.93;;;3.10;;
44764;SDS011;30484;52.382;5.260;2023-06-26T09:28:23;10.10;;;2.38;;
44764;SDS011;30484;52.382;5.260;2023-06-26T09:30:52;14.50;;;2.97;;
44764;SDS011;30484;52.382;5.260;2023-06-26T09:33:20;7.28;;;2.50;;
44764;SDS011;30484;52.382;5.260;2023-06-26T09:35:50;8.57;;;3.25;;
44764;SDS011;30484;52.382;5.260;2023-06-26T09:38:19;9.60;;;2.80;;
44764;SDS011;30484;52.382;5.260;2023-06-26T09:40:47;11.10;;;3.08;;
44764;SDS011;30484;52.382;5.260;2023-06-26T09:43:16;8.70;;;2.47;;
44764;SDS011;30484;52.382;5.260;2023-06-26T09:45:45;10.18;;;2.67;;
44764;SDS011;30484;52.382;5.260;2023-06-26T09:48:14;8.63;;;2.35;;
44764;SDS011;30484;52.382;5.260;2023-06-26T09:50:43;7.68;;;2.22;;
44764;SDS011;30484;52.382;5.260;2023-06-26T09:53:35;11.18;;;2.80;;
44764;SDS011;30484;52.382;5.260;2023-06-26T09:56:07;8.65;;;2.33;;
44764;SDS011;30484;52.382;5.260;2023-06-26T09:58:43;9.63;;;2.22;;
44764;SDS011;30484;52.382;5.260;2023-06-26T10:01:12;9.18;;;2.10;;
44764;SDS011;30484;52.382;5.260;2023-06-26T10:03:41;7.80;;;2.20;;
44764;SDS011;30484;52.382;5.260;2023-06-26T10:06:10;6.07;;;1.60;;
44764;SDS011;30484;52.382;5.260;2023-06-26T10:08:41;7.07;;;1.67;;
44764;SDS011;30484;52.382;5.260;2023-06-26T10:11:13;6.03;;;1.63;;
44764;SDS011;30484;52.382;5.260;2023-06-26T10:13:44;8.82;;;2.22;;
44764;SDS011;30484;52.382;5.260;2023-06-26T10:16:15;12.77;;;2.03;;
44764;SDS011;30484;52.382;5.260;2023-06-26T10:18:50;9.10;;;1.80;;
44764;SDS011;30484;52.382;5.260;2023-06-26T10:21:24;7.30;;;1.50;;
44764;SDS011;30484;52.382;5.260;2023-06-26T10:23:58;6.95;;;1.52;;
44764;SDS011;30484;52.382;5.260;2023-06-26T10:26:27;5.55;;;1.83;;
44764;SDS011;30484;52.382;5.260;2023-06-26T10:28:56;7.93;;;1.83;;
44764;SDS011;30484;52.382;5.260;2023-06-26T10:31:26;6.80;;;1.75;;
44764;SDS011;30484;52.382;5.260;2023-06-26T10:33:57;7.57;;;1.55;;
44764;SDS011;30484;52.382;5.260;2023-06-26T10:36:29;8.75;;;1.70;;
44764;SDS011;30484;52.382;5.260;2023-06-26T10:39:03;5.93;;;1.60;;
44764;SDS011;30484;52.382;5.260;2023-06-26T10:41:36;6.15;;;1.60;;
44764;SDS011;30484;52.382;5.260;2023-06-26T10:44:15;4.80;;;1.52;;
44764;SDS011;30484;52.382;5.260;2023-06-26T10:46:50;3.65;;;1.40;;
44764;SDS011;30484;52.382;5.260;2023-06-26T10:49:24;8.63;;;1.75;;
44764;SDS011;30484;52.382;5.260;2023-06-26T10:51:55;12.55;;;2.10;;
44764;SDS011;30484;52.382;5.260;2023-06-26T10:54:33;6.90;;;1.75;;
44764;SDS011;30484;52.382;5.260;2023-06-26T10:57:02;7.38;;;1.65;;
44764;SDS011;30484;52.382;5.260;2023-06-26T10:59:34;9.30;;;1.65;;
44764;SDS011;30484;52.382;5.260;2023-06-26T11:02:09;5.68;;;2.00;;
44764;SDS011;30484;52.382;5.260;2023-06-26T11:04:38;7.50;;;1.98;;
44764;SDS011;30484;52.382;5.260;2023-06-26T11:07:16;9.90;;;2.15;;
44764;SDS011;30484;52.382;5.260;2023-06-26T11:09:57;12.52;;;2.40;;
44764;SDS011;30484;52.382;5.260;2023-06-26T11:15:15;9.93;;;1.90;;
44764;SDS011;30484;52.382;5.260;2023-06-26T11:17:46;7.75;;;1.90;;
44764;SDS011;30484;52.382;5.260;2023-06-26T11:20:15;10.07;;;1.90;;
44764;SDS011;30484;52.382;5.260;2023-06-26T11:22:44;5.45;;;1.55;;
44764;SDS011;30484;52.382;5.260;2023-06-26T11:25:14;12.27;;;1.92;;
44764;SDS011;30484;52.382;5.260;2023-06-26T11:27:43;7.53;;;1.63;;
44764;SDS011;30484;52.382;5.260;2023-06-26T11:30:23;10.10;;;1.88;;
44764;SDS011;30484;52.382;5.260;2023-06-26T11:32:53;7.10;;;1.85;;
44764;SDS011;30484;52.382;5.260;2023-06-26T11:35:31;10.15;;;1.88;;
44764;SDS011;30484;52.382;5.260;2023-06-26T11:38:00;4.63;;;1.75;;
44764;SDS011;30484;52.382;5.260;2023-06-26T11:40:32;7.85;;;1.77;;
44764;SDS011;30484;52.382;5.260;2023-06-26T11:43:04;6.13;;;1.48;;
44764;SDS011;30484;52.382;5.260;2023-06-26T11:45:34;7.88;;;2.10;;
44764;SDS011;30484;52.382;5.260;2023-06-26T11:48:03;6.65;;;1.75;;
44764;SDS011;30484;52.382;5.260;2023-06-26T11:50:31;8.20;;;1.70;;
44764;SDS011;30484;52.382;5.260;2023-06-26T11:53:05;9.75;;;1.58;;
44764;SDS011;30484;52.382;5.260;2023-06-26T11:55:41;11.05;;;1.77;;
44764;SDS011;30484;52.382;5.260;2023-06-26T11:58:11;7.93;;;1.80;;
44764;SDS011;30484;52.382;5.260;2023-06-26T12:00:41;6.38;;;1.60;;
44764;SDS011;30484;52.382;5.260;2023-06-26T12:03:10;9.75;;;1.70;;
44764;SDS011;30484;52.382;5.260;2023-06-26T12:05:41;7.85;;;1.83;;
44764;SDS011;30484;52.382;5.260;2023-06-26T12:08:11;9.80;;;2.25;;
44764;SDS011;30484;52.382;5.260;2023-06-26T12:10:39;10.85;;;1.70;;
44764;SDS011;30484;52.382;5.260;2023-06-26T12:13:09;6.40;;;1.77;;
44764;SDS011;30484;52.382;5.260;2023-06-26T12:15:38;10.75;;;1.98;;
44764;SDS011;30484;52.382;5.260;2023-06-26T12:18:07;6.97;;;1.95;;
44764;SDS011;30484;52.382;5.260;2023-06-26T12:20:39;7.22;;;1.73;;
44764;SDS011;30484;52.382;5.260;2023-06-26T12:23:11;7.47;;;1.65;;
44764;SDS011;30484;52.382;5.260;2023-06-26T12:25:41;9.30;;;1.73;;
44764;SDS011;30484;52.382;5.260;2023-06-26T12:28:16;5.63;;;1.73;;
44764;SDS011;30484;52.382;5.260;2023-06-26T12:30:46;7.60;;;1.58;;
44764;SDS011;30484;52.382;5.260;2023-06-26T12:33:15;8.40;;;1.92;;
44764;SDS011;30484;52.382;5.260;2023-06-26T12:35:43;9.07;;;2.42;;
44764;SDS011;30484;52.382;5.260;2023-06-26T12:38:13;4.85;;;1.80;;
44764;SDS011;30484;52.382;5.260;2023-06-26T12:40:48;5.35;;;1.65;;
44764;SDS011;30484;52.382;5.260;2023-06-26T12:43:22;6.97;;;1.90;;
44764;SDS011;30484;52.382;5.260;2023-06-26T12:45:53;5.67;;;1.70;;
44764;SDS011;30484;52.382;5.260;2023-06-26T12:48:35;7.38;;;1.75;;
44764;SDS011;30484;52.382;5.260;2023-06-26T12:51:09;7.35;;;1.90;;
44764;SDS011;30484;52.382;5.260;2023-06-26T12:53:38;4.80;;;1.58;;
44764;SDS011;30484;52.382;5.260;2023-06-26T12:56:08;6.78;;;2.05;;
44764;SDS011;30484;52.382;5.260;2023-06-26T12:58:38;8.02;;;1.83;;
44764;SDS011;30484;52.382;5.260;2023-06-26T13:01:06;4.75;;;1.58;;
44764;SDS011;30484;52.382;5.260;2023-06-26T13:03:40;6.30;;;1.50;;
44764;SDS011;30484;52.382;5.260;2023-06-26T13:06:08;3.63;;;1.33;;
44764;SDS011;30484;52.382;5.260;2023-06-26T13:08:37;8.30;;;1.90;;
44764;SDS011;30484;52.382;5.260;2023-06-26T13:11:05;5.75;;;1.63;;
44764;SDS011;30484;52.382;5.260;2023-06-26T13:13:35;6.47;;;1.65;;
44764;SDS011;30484;52.382;5.260;2023-06-26T13:16:03;8.07;;;1.65;;
44764;SDS011;30484;52.382;5.260;2023-06-26T13:18:32;7.35;;;1.90;;
44764;SDS011;30484;52.382;5.260;2023-06-26T13:21:00;9.25;;;1.98;;
44764;SDS011;30484;52.382;5.260;2023-06-26T13:23:28;6.53;;;1.50;;
44764;SDS011;30484;52.382;5.260;2023-06-26T13:25:57;10.75;;;1.95;;
44764;SDS011;30484;52.382;5.260;2023-06-26T13:28:27;5.47;;;1.67;;
44764;SDS011;30484;52.382;5.260;2023-06-26T13:30:55;6.00;;;2.15;;
44764;SDS011;30484;52.382;5.260;2023-06-26T13:33:23;6.90;;;1.75;;
44764;SDS011;30484;52.382;5.260;2023-06-26T13:35:52;8.57;;;1.70;;
44764;SDS011;30484;52.382;5.260;2023-06-26T13:38:20;5.80;;;1.52;;
44764;SDS011;30484;52.382;5.260;2023-06-26T13:40:51;5.57;;;1.30;;
44764;SDS011;30484;52.382;5.260;2023-06-26T13:43:20;3.92;;;1.42;;
44764;SDS011;30484;52.382;5.260;2023-06-26T13:45:51;8.00;;;1.80;;
44764;SDS011;30484;52.382;5.260;2023-06-26T13:48:23;4.70;;;1.40;;
44764;SDS011;30484;52.382;5.260;2023-06-26T13:50:52;3.47;;;1.55;;
44764;SDS011;30484;52.382;5.260;2023-06-26T13:53:20;5.40;;;1.45;;
44764;SDS011;30484;52.382;5.260;2023-06-26T14:02:16;8.57;;;1.33;;
44764;SDS011;30484;52.382;5.260;2023-06-26T14:04:45;6.13;;;1.38;;
44764;SDS011;30484;52.382;5.260;2023-06-26T14:07:13;6.45;;;1.63;;
44764;SDS011;30484;52.382;5.260;2023-06-26T14:09:42;9.20;;;1.40;;
44764;SDS011;30484;52.382;5.260;2023-06-26T14:12:10;2.92;;;1.50;;
44764;SDS011;30484;52.382;5.260;2023-06-26T14:14:38;7.28;;;1.50;;
44764;SDS011;30484;52.382;5.260;2023-06-26T14:17:06;8.35;;;1.63;;
44764;SDS011;30484;52.382;5.260;2023-06-26T14:19:37;5.38;;;1.30;;
44764;SDS011;30484;52.382;5.260;2023-06-26T14:22:07;6.22;;;1.48;;
44764;SDS011;30484;52.382;5.260;2023-06-26T14:24:35;4.00;;;1.40;;
44764;SDS011;30484;52.382;5.260;2023-06-26T14:27:04;5.05;;;1.50;;
44764;SDS011;30484;52.382;5.260;2023-06-26T14:29:32;4.65;;;1.38;;
44764;SDS011;30484;52.382;5.260;2023-06-26T14:32:00;4.85;;;1.70;;
44764;SDS011;30484;52.382;5.260;2023-06-26T14:34:29;7.53;;;1.45;;
44764;SDS011;30484;52.382;5.260;2023-06-26T14:36:59;4.97;;;1.45;;
44764;SDS011;30484;52.382;5.260;2023-06-26T14:39:29;5.18;;;1.77;;
44764;SDS011;30484;52.382;5.260;2023-06-26T14:41:59;5.85;;;1.70;;
44764;SDS011;30484;52.382;5.260;2023-06-26T14:44:28;4.43;;;1.38;;
44764;SDS011;30484;52.382;5.260;2023-06-26T14:46:57;5.00;;;1.40;;
44764;SDS011;30484;52.382;5.260;2023-06-26T14:49:25;6.68;;;1.60;;
44764;SDS011;30484;52.382;5.260;2023-06-26T14:51:53;5.75;;;1.73;;
44764;SDS011;30484;52.382;5.260;2023-06-26T14:54:23;2.58;;;1.25;;
44764;SDS011;30484;52.382;5.260;2023-06-26T14:56:51;5.45;;;1.42;;
44764;SDS011;30484;52.382;5.260;2023-06-26T14:59:19;4.85;;;1.67;;
44764;SDS011;30484;52.382;5.260;2023-06-26T15:01:48;3.95;;;1.45;;
44764;SDS011;30484;52.382;5.260;2023-06-26T15:04:16;5.40;;;1.10;;
44764;SDS011;30484;52.382;5.260;2023-06-26T15:06:45;5.43;;;1.58;;
44764;SDS011;30484;52.382;5.260;2023-06-26T15:09:14;5.72;;;1.30;;
44764;SDS011;30484;52.382;5.260;2023-06-26T15:11:44;5.03;;;1.42;;